sensor_id;sensor_type;location;lat;lon;timestamp;pressure;altitude;pressure_sealevel;temperature;humidity
48606;BME280;8482;54.396;18.590;2023-07-08T20:33:48;102057.16;;;18.26;68.24
48606;BME280;8482;54.396;18.590;2023-07-08T20:36:17;102056.59;;;18.22;68.92
48606;BME280;8482;54.396;18.590;2023-07-08T20:38:44;102054.16;;;18.19;69.07
48606;BME280;8482;54.396;18.590;2023-07-08T20:41:10;102053.47;;;18.17;69.15
48606;BME280;8482;54.396;18.590;2023-07-08T20:43:36;102049.78;;;18.18;69.20
48606;BME280;8482;54.396;18.590;2023-07-08T20:46:03;102054.16;;;18.19;68.92
48606;BME280;8482;54.396;18.590;2023-07-08T20:48:32;102050.91;;;18.16;68.79
48606;BME280;8482;54.396;18.590;2023-07-08T20:50:58;102052.75;;;18.15;69.16
48606;BME280;8482;54.396;18.590;2023-07-08T20:53:25;102051.75;;;18.16;69.17
48606;BME280;8482;54.396;18.590;2023-07-08T20:55:53;102052.75;;;18.15;69.28
48606;BME280;8482;54.396;18.590;2023-07-08T20:58:24;102057.41;;;18.13;69.18
48606;BME280;8482;54.396;18.590;2023-07-08T21:00:52;102052.19;;;18.12;69.13
48606;BME280;8482;54.396;18.590;2023-07-08T21:03:21;102045.97;;;18.11;68.90
48606;BME280;8482;54.396;18.590;2023-07-08T21:05:55;102043.41;;;18.10;68.92
48606;BME280;8482;54.396;18.590;2023-07-08T21:08:33;102046.25;;;18.08;69.00
48606;BME280;8482;54.396;18.590;2023-07-08T21:11:00;102048.22;;;18.06;69.19
48606;BME280;8482;54.396;18.590;2023-07-08T21:13:26;102054.72;;;18.03;68.99
48606;BME280;8482;54.396;18.590;2023-07-08T21:15:52;102047.78;;;18.01;68.86
48606;BME280;8482;54.396;18.590;2023-07-08T21:18:27;102049.63;;;18.00;68.88
48606;BME280;8482;54.396;18.590;2023-07-08T21:20:55;102047.22;;;17.97;68.94
48606;BME280;8482;54.396;18.590;2023-07-08T21:23:21;102057.19;;;17.95;68.98
48606;BME280;8482;54.396;18.590;2023-07-08T21:25:53;102061.72;;;17.95;69.22
48606;BME280;8482;54.396;18.590;2023-07-08T21:28:33;102044.75;;;17.94;69.06
48606;BME280;8482;54.396;18.590;2023-07-08T21:31:03;102057.50;;;17.92;69.60
48606;BME280;8482;54.396;18.590;2023-07-08T21:33:30;102054.22;;;17.88;69.54
48606;BME280;8482;54.396;18.590;2023-07-08T21:35:58;102058.91;;;17.86;69.44
48606;BME280;8482;54.396;18.590;2023-07-08T21:38:25;102060.16;;;17.82;69.57
48606;BME280;8482;54.396;18.590;2023-07-08T21:40:53;102041.91;;;17.76;69.52
48606;BME280;8482;54.396;18.590;2023-07-08T21:43:23;102051.78;;;17.75;69.64
48606;BME280;8482;54.396;18.590;2023-07-08T21:45:50;102056.44;;;17.73;69.94
48606;BME280;8482;54.396;18.590;2023-07-08T21:48:18;102059.41;;;17.70;70.21
48606;BME280;8482;54.396;18.590;2023-07-08T21:50:52;102060.69;;;17.66;70.04
48606;BME280;8482;54.396;18.590;2023-07-08T21:53:33;102054.84;;;17.61;70.01
48606;BME280;8482;54.396;18.590;2023-07-08T21:56:01;102062.19;;;17.59;70.13
48606;BME280;8482;54.396;18.590;2023-07-08T21:58:29;102066.13;;;17.55;70.15
48606;BME280;8482;54.396;18.590;2023-07-08T22:00:56;102068.94;;;17.53;70.29
48606;BME280;8482;54.396;18.590;2023-07-08T22:03:28;102053.25;;;17.49;70.41
48606;BME280;8482;54.396;18.590;2023-07-08T22:05:56;102073.16;;;17.46;70.68
48606;BME280;8482;54.396;18.590;2023-07-08T22:08:25;102062.81;;;17.41;70.90
48606;BME280;8482;54.396;18.590;2023-07-08T22:10:58;102057.84;;;17.37;70.97
48606;BME280;8482;54.396;18.590;2023-07-08T22:13:37;102053.88;;;17.31;70.96
48606;BME280;8482;54.396;18.590;2023-07-08T22:16:12;102052.31;;;17.28;71.41
48606;BME280;8482;54.396;18.590;2023-07-08T22:18:38;102053.56;;;17.24;71.52
48606;BME280;8482;54.396;18.590;2023-07-08T22:21:24;102059.19;;;17.21;71.68
48606;BME280;8482;54.396;18.590;2023-07-08T22:24:02;102056.78;;;17.18;71.88
48606;BME280;8482;54.396;18.590;2023-07-08T22:26:32;102059.72;;;17.15;71.91
48606;BME280;8482;54.396;18.590;2023-07-08T22:29:01;102058.88;;;17.14;72.08
48606;BME280;8482;54.396;18.590;2023-07-08T22:31:33;102055.50;;;17.12;72.12
48606;BME280;8482;54.396;18.590;2023-07-08T22:34:01;102053.19;;;17.08;72.08
48606;BME280;8482;54.396;18.590;2023-07-08T22:36:27;102050.06;;;17.03;72.23
48606;BME280;8482;54.396;18.590;2023-07-08T22:39:06;102054.69;;;17.00;72.60
48606;BME280;8482;54.396;18.590;2023-07-08T22:41:53;102042.69;;;16.95;72.50
48606;BME280;8482;54.396;18.590;2023-07-08T22:44:20;102044.13;;;16.88;72.64
48606;BME280;8482;54.396;18.590;2023-07-08T22:46:47;102060.22;;;16.88;72.87
48606;BME280;8482;54.396;18.590;2023-07-08T22:49:13;102053.31;;;16.85;72.88
48606;BME280;8482;54.396;18.590;2023-07-08T22:51:50;102052.72;;;16.81;72.90
48606;BME280;8482;54.396;18.590;2023-07-08T22:54:18;102056.38;;;16.80;73.02
48606;BME280;8482;54.396;18.590;2023-07-08T22:56:45;102060.19;;;16.78;73.18
48606;BME280;8482;54.396;18.590;2023-07-08T22:59:11;102054.19;;;16.74;73.18
48606;BME280;8482;54.396;18.590;2023-07-08T23:01:37;102055.31;;;16.72;73.17
48606;BME280;8482;54.396;18.590;2023-07-08T23:04:03;102043.88;;;16.69;73.42
48606;BME280;8482;54.396;18.590;2023-07-08T23:06:29;102053.88;;;16.67;73.17
48606;BME280;8482;54.396;18.590;2023-07-08T23:08:56;102049.63;;;16.65;73.11
48606;BME280;8482;54.396;18.590;2023-07-08T23:11:22;102051.59;;;16.63;72.97
48606;BME280;8482;54.396;18.590;2023-07-08T23:13:48;102047.50;;;16.59;73.03
48606;BME280;8482;54.396;18.590;2023-07-08T23:18:46;102068.28;;;16.55;73.02
48606;BME280;8482;54.396;18.590;2023-07-08T23:21:14;102050.66;;;16.52;72.89
48606;BME280;8482;54.396;18.590;2023-07-08T23:23:41;102044.13;;;16.45;72.84
48606;BME280;8482;54.396;18.590;2023-07-08T23:28:47;102054.84;;;16.45;72.95
48606;BME280;8482;54.396;18.590;2023-07-08T23:31:15;102064.94;;;16.42;72.64
48606;BME280;8482;54.396;18.590;2023-07-08T23:33:41;102061.44;;;16.41;72.34
48606;BME280;8482;54.396;18.590;2023-07-08T23:36:29;102060.69;;;16.39;72.45
48606;BME280;8482;54.396;18.590;2023-07-08T23:38:55;102058.16;;;16.37;72.21
48606;BME280;8482;54.396;18.590;2023-07-08T23:41:21;102060.69;;;16.39;71.87
48606;BME280;8482;54.396;18.590;2023-07-08T23:43:47;102059.25;;;16.35;72.03
48606;BME280;8482;54.396;18.590;2023-07-08T23:46:24;102070.81;;;16.35;71.81
48606;BME280;8482;54.396;18.590;2023-07-08T23:48:51;102057.69;;;16.32;72.04
48606;BME280;8482;54.396;18.590;2023-07-08T23:51:17;102064.88;;;16.32;72.15
48606;BME280;8482;54.396;18.590;2023-07-08T23:53:43;102060.34;;;16.32;72.21
48606;BME280;8482;54.396;18.590;2023-07-08T23:56:14;102055.88;;;16.33;72.02
48606;BME280;8482;54.396;18.590;2023-07-08T23:58:41;102048.91;;;16.30;72.26
